createdAt,value
2022-10-16T00:01:24.203Z,101474.38
2022-10-16T00:04:12.345Z,101473.69
2022-10-16T00:07:00.635Z,101473.98
2022-10-16T00:09:48.916Z,101475.92
2022-10-16T00:12:37.015Z,101478.84
2022-10-16T00:15:25.390Z,101481.77
2022-10-16T00:18:14.972Z,101478.72
2022-10-16T00:21:09.689Z,101483.30
2022-10-16T00:24:00.178Z,101483.59
2022-10-16T00:26:52.150Z,101489.96
2022-10-16T00:29:40.420Z,101484.96
2022-10-16T00:32:28.768Z,101483.55
2022-10-16T00:35:17.823Z,101485.48
2022-10-16T00:38:05.989Z,101488.28
2022-10-16T00:40:54.018Z,101483.28
2022-10-16T00:43:45.321Z,101487.99
2022-10-16T00:46:36.886Z,101485.63
2022-10-16T00:49:24.808Z,101484.12
2022-10-16T00:52:14.394Z,101481.75
2022-10-16T00:55:04.446Z,101484.52
2022-10-16T00:57:53.239Z,101485.64
2022-10-16T01:00:41.911Z,101477.16
2022-10-16T01:03:32.745Z,101478.13
2022-10-16T01:06:30.055Z,101467.03
2022-10-16T01:09:23.932Z,101471.61
2022-10-16T01:12:20.352Z,101473.55
2022-10-16T01:15:17.411Z,101470.22
2022-10-16T01:18:11.734Z,101474.80
2022-10-16T01:21:04.806Z,101476.59
2022-10-16T01:24:02.839Z,101480.20
2022-10-16T01:27:15.907Z,101483.80
2022-10-16T01:30:13.274Z,101485.63
2022-10-16T01:33:07.127Z,101498.93
2022-10-16T01:35:59.279Z,101498.11
2022-10-16T01:38:51.771Z,101499.20
2022-10-16T01:41:44.341Z,101492.27
2022-10-16T01:44:36.925Z,101501.14
2022-10-16T01:47:28.587Z,101506.56
2022-10-16T01:50:19.960Z,101514.48
2022-10-16T01:53:12.210Z,101513.78
2022-10-16T01:56:02.720Z,101519.33
2022-10-16T01:58:55.271Z,101510.02
2022-10-16T02:01:48.289Z,101514.44
2022-10-16T02:04:37.614Z,101516.26
2022-10-16T02:07:26.146Z,101527.89
2022-10-16T02:10:14.597Z,101521.09
2022-10-16T02:13:07.376Z,101525.52
2022-10-16T02:15:55.847Z,101516.77
2022-10-16T02:18:45.093Z,101529.25
2022-10-16T02:21:42.065Z,101521.48
2022-10-16T02:24:39.850Z,101521.60
2022-10-16T02:27:34.203Z,101530.48
2022-10-16T02:30:28.839Z,101528.81
2022-10-16T02:33:19.235Z,101525.48
2022-10-16T02:36:08.521Z,101526.45
2022-10-16T02:38:59.753Z,101534.35
2022-10-16T02:41:48.536Z,101536.17
2022-10-16T02:44:36.267Z,101547.80
2022-10-16T02:47:24.554Z,101546.28
2022-10-16T02:50:12.700Z,101549.88
2022-10-16T02:53:01.320Z,101547.36
2022-10-16T02:55:49.201Z,101543.05
2022-10-16T02:58:37.441Z,101542.35
2022-10-16T03:01:26.240Z,101547.89
2022-10-16T03:04:14.454Z,101555.09
2022-10-16T03:07:02.761Z,101550.08
2022-10-16T03:09:50.551Z,101549.38
2022-10-16T03:12:39.480Z,101555.77
2022-10-16T03:15:28.854Z,101559.48
2022-10-16T03:18:17.455Z,101565.72
2022-10-16T03:21:05.570Z,101563.34
2022-10-16T03:23:53.785Z,101567.09
2022-10-16T03:26:41.790Z,101566.23
2022-10-16T03:29:30.188Z,101569.13
2022-10-16T03:32:18.914Z,101564.12
2022-10-16T03:35:08.303Z,101566.05
2022-10-16T03:37:57.015Z,101560.08
2022-10-16T03:40:45.478Z,101561.19
2022-10-16T03:43:33.671Z,101567.53
2022-10-16T03:46:21.969Z,101564.34
2022-10-16T03:49:10.101Z,101570.68
2022-10-16T03:51:58.890Z,101566.52
2022-10-16T03:54:47.037Z,101564.97
2022-10-16T03:57:35.435Z,101561.77
2022-10-16T04:00:23.711Z,101567.30
2022-10-16T04:03:12.338Z,101558.80
2022-10-16T04:06:00.237Z,101567.80
2022-10-16T04:08:48.292Z,101564.58
2022-10-16T04:11:36.467Z,101565.68
2022-10-16T04:14:25.341Z,101566.75
2022-10-16T04:17:13.329Z,101574.79
2022-10-16T04:20:01.488Z,101579.34
2022-10-16T04:22:49.803Z,101582.23
2022-10-16T04:25:37.889Z,101584.97
2022-10-16T04:28:25.903Z,101585.94
2022-10-16T04:31:14.297Z,101581.06
2022-10-16T04:34:03.012Z,101586.33
2022-10-16T04:36:51.097Z,101584.66
2022-10-16T04:39:39.009Z,101584.77
2022-10-16T04:42:27.121Z,101589.32
2022-10-16T04:45:17.182Z,101586.83
2022-10-16T04:48:05.851Z,101586.12
2022-10-16T04:50:55.220Z,101593.30
2022-10-16T04:53:44.302Z,101601.20
2022-10-16T04:56:32.232Z,101602.98
2022-10-16T04:59:21.397Z,101609.20
2022-10-16T05:02:10.345Z,101615.42
2022-10-16T05:04:58.303Z,101602.27
2022-10-16T05:07:46.329Z,101620.58
2022-10-16T05:10:35.022Z,101624.28
2022-10-16T05:13:24.025Z,101628.33
2022-10-16T05:16:12.176Z,101628.33
2022-10-16T05:19:26.774Z,101631.68
2022-10-16T05:22:08.639Z,101640.28
2022-10-16T05:24:56.514Z,101635.73
2022-10-16T05:27:47.947Z,101641.60
2022-10-16T05:30:37.979Z,101645.77
2022-10-16T05:33:27.076Z,101648.04
2022-10-16T05:36:15.698Z,101655.69
2022-10-16T05:39:04.627Z,101656.26
2022-10-16T05:41:52.791Z,101668.10
2022-10-16T05:44:40.647Z,101672.87
2022-10-16T05:47:29.532Z,101672.61
2022-10-16T05:50:18.451Z,101671.16
2022-10-16T05:53:06.751Z,101674.24
2022-10-16T05:55:56.769Z,101680.68
2022-10-16T05:58:45.106Z,101687.11
2022-10-16T06:01:34.119Z,101691.88
2022-10-16T06:04:22.189Z,101694.70
2022-10-16T06:07:10.530Z,101698.36
2022-10-16T06:09:58.644Z,101703.57
2022-10-16T06:12:46.899Z,101707.25
2022-10-16T06:15:35.238Z,101712.59
2022-10-16T06:18:23.866Z,101715.27
2022-10-16T06:21:15.078Z,101723.25
2022-10-16T06:24:03.288Z,101718.86
2022-10-16T06:26:51.443Z,101723.91
2022-10-16T06:29:39.915Z,101719.38
2022-10-16T06:32:28.279Z,101728.99
2022-10-16T06:35:16.430Z,101731.44
2022-10-16T06:38:04.216Z,101736.47
2022-10-16T06:40:54.165Z,101738.87
2022-10-16T06:43:41.873Z,101739.30
2022-10-16T06:46:29.966Z,101740.72
2022-10-16T06:49:22.914Z,101748.24
2022-10-16T06:52:09.658Z,101748.80
2022-10-16T06:54:57.867Z,101745.73
2022-10-16T06:57:49.055Z,101747.95
2022-10-16T07:00:37.521Z,101750.15
2022-10-16T07:03:25.328Z,101743.44
2022-10-16T07:06:16.043Z,101742.81
2022-10-16T07:09:07.087Z,101747.22
2022-10-16T07:11:55.574Z,101745.63
2022-10-16T07:14:43.414Z,101740.36
2022-10-16T07:17:31.472Z,101743.73
2022-10-16T07:20:20.867Z,101741.97
2022-10-16T07:23:08.774Z,101753.11
2022-10-16T07:25:57.094Z,101750.59
2022-10-16T07:28:46.187Z,101750.42
2022-10-16T07:31:34.570Z,101751.89
2022-10-16T07:34:22.918Z,101741.38
2022-10-16T07:37:10.991Z,101749.27
2022-10-16T07:39:59.766Z,101751.86
2022-10-16T07:42:48.106Z,101750.61
2022-10-16T07:45:35.810Z,101750.48
2022-10-16T07:48:25.333Z,101743.43
2022-10-16T07:51:14.893Z,101743.45
2022-10-16T07:54:02.860Z,101741.66
2022-10-16T07:56:52.241Z,101739.16
2022-10-16T07:59:40.818Z,101740.00
2022-10-16T08:02:29.008Z,101731.33
2022-10-16T08:05:17.099Z,101750.41
2022-10-16T08:08:06.338Z,101741.38
2022-10-16T08:10:54.604Z,101745.66
2022-10-16T08:13:43.096Z,101753.45
2022-10-16T08:16:31.232Z,101750.88
2022-10-16T08:19:19.369Z,101744.80
2022-10-16T08:22:07.506Z,101749.23
2022-10-16T08:24:55.935Z,101754.45
2022-10-16T08:27:45.270Z,101751.67
2022-10-16T08:30:33.899Z,101748.22
2022-10-16T08:33:23.114Z,101752.77
2022-10-16T08:36:12.201Z,101756.30
2022-10-16T08:39:00.388Z,101756.70
2022-10-16T08:42:12.776Z,101765.12
2022-10-16T08:45:24.558Z,101762.75
2022-10-16T08:48:21.205Z,101758.87
2022-10-16T08:51:12.998Z,101766.49
2022-10-16T08:54:04.689Z,101760.12
2022-10-16T08:56:54.933Z,101759.25
2022-10-16T08:59:44.377Z,101762.25
2022-10-16T09:02:39.771Z,101757.88
2022-10-16T09:05:55.751Z,101764.84
2022-10-16T09:08:59.893Z,101766.24
2022-10-16T09:11:59.538Z,101765.79
2022-10-16T09:14:59.546Z,101759.27
2022-10-16T09:17:58.957Z,101755.36
2022-10-16T09:20:59.636Z,101752.98
2022-10-16T09:23:48.281Z,101750.81
2022-10-16T09:26:36.424Z,101750.50
2022-10-16T09:29:26.235Z,101752.88
2022-10-16T09:32:20.106Z,101742.64
2022-10-16T09:35:15.160Z,101740.02
2022-10-16T09:38:03.359Z,101742.73
2022-10-16T09:40:58.793Z,101744.43
2022-10-16T09:43:57.043Z,101740.12
2022-10-16T09:46:45.238Z,101730.22
2022-10-16T09:49:33.962Z,101730.62
2022-10-16T09:52:37.158Z,101743.66
2022-10-16T09:55:24.364Z,101734.58
2022-10-16T09:58:15.717Z,101733.34
2022-10-16T10:01:04.434Z,101725.52
2022-10-16T10:04:01.300Z,101728.61
2022-10-16T10:06:51.822Z,101725.91
2022-10-16T10:09:46.273Z,101723.39
2022-10-16T10:12:37.372Z,101721.94
2022-10-16T10:15:27.448Z,101717.38
2022-10-16T10:18:23.919Z,101713.00
2022-10-16T10:21:23.071Z,101712.14
2022-10-16T10:24:14.894Z,101710.44
2022-10-16T10:27:10.253Z,101710.58
2022-10-16T10:30:03.222Z,101700.62
2022-10-16T10:33:06.964Z,101701.58
2022-10-16T10:36:04.931Z,101708.73
2022-10-16T10:38:57.956Z,101709.91
2022-10-16T10:42:16.916Z,101705.31
2022-10-16T10:45:24.314Z,101701.61
2022-10-16T10:48:25.379Z,101700.56
2022-10-16T10:51:19.161Z,101704.06
2022-10-16T10:54:20.907Z,101703.80
2022-10-16T10:57:19.169Z,101707.26
2022-10-16T11:00:22.315Z,101701.97
2022-10-16T11:03:24.837Z,101692.56
2022-10-16T11:06:15.024Z,101689.10
2022-10-16T11:09:13.566Z,101689.82
2022-10-16T11:12:08.322Z,101688.01
2022-10-16T11:15:02.942Z,101686.16
2022-10-16T11:18:04.341Z,101684.87
2022-10-16T11:21:15.969Z,101690.42
2022-10-16T11:24:34.595Z,101682.91
2022-10-16T11:27:35.272Z,101672.04
2022-10-16T11:30:26.272Z,101666.12
2022-10-16T11:33:28.407Z,101668.90
2022-10-16T11:36:20.405Z,101666.41
2022-10-16T11:39:19.770Z,101669.79
2022-10-16T11:42:14.689Z,101669.70
2022-10-16T11:45:16.656Z,101672.71
2022-10-16T11:48:16.484Z,101664.94
2022-10-16T11:51:15.456Z,101671.52
2022-10-16T11:54:15.453Z,101664.78
2022-10-16T11:57:10.688Z,101671.16
2022-10-16T12:00:02.280Z,101670.47
2022-10-16T12:03:12.767Z,101669.28
2022-10-16T12:06:25.015Z,101667.78
2022-10-16T12:09:16.836Z,101673.46
2022-10-16T12:12:05.692Z,101670.45
2022-10-16T12:15:17.767Z,101664.61
2022-10-16T12:18:23.673Z,101659.77
2022-10-16T12:21:16.255Z,101661.41
2022-10-16T12:24:06.773Z,101660.27
2022-10-16T12:26:55.629Z,101662.05
2022-10-16T12:29:45.458Z,101659.28
2022-10-16T12:32:46.715Z,101671.93
2022-10-16T12:35:45.750Z,101667.30
2022-10-16T12:38:38.919Z,101667.09
2022-10-16T12:41:28.690Z,101668.88
2022-10-16T12:44:26.836Z,101668.78
2022-10-16T12:47:24.707Z,101666.03
2022-10-16T12:50:32.294Z,101674.02
2022-10-16T12:53:23.212Z,101676.86
2022-10-16T12:56:22.683Z,101676.64
2022-10-16T12:59:21.679Z,101684.33
2022-10-16T13:02:41.849Z,101678.76
2022-10-16T13:05:44.367Z,101680.62
2022-10-16T13:08:52.216Z,101675.36
2022-10-16T13:11:56.779Z,101677.63
2022-10-16T13:15:16.173Z,101682.12
2022-10-16T13:18:14.699Z,101693.89
2022-10-16T13:21:19.145Z,101688.63
2022-10-16T13:24:21.251Z,101688.98
2022-10-16T13:27:19.659Z,101686.27
2022-10-16T13:30:16.748Z,101686.27
2022-10-16T13:33:14.802Z,101688.52
2022-10-16T13:36:04.775Z,101682.06
2022-10-16T13:39:11.797Z,101689.11
2022-10-16T13:42:11.278Z,101693.23
2022-10-16T13:45:13.474Z,101700.74
2022-10-16T13:48:07.680Z,101700.74
2022-10-16T13:51:12.639Z,101698.05
2022-10-16T13:54:02.064Z,101692.86
2022-10-16T13:57:03.395Z,101706.59
2022-10-16T13:59:57.942Z,101705.41
2022-10-16T14:02:52.283Z,101713.12
2022-10-16T14:05:49.378Z,101706.54
2022-10-16T14:08:43.621Z,101711.80
2022-10-16T14:11:33.330Z,101710.25
2022-10-16T14:14:22.103Z,101716.28
2022-10-16T14:17:23.780Z,101715.55
2022-10-16T14:20:20.348Z,101714.20
2022-10-16T14:23:42.166Z,101714.30
2022-10-16T14:26:49.686Z,101710.86
2022-10-16T14:29:47.453Z,101720.65
2022-10-16T14:32:49.835Z,101718.05
2022-10-16T14:35:46.046Z,101730.98
2022-10-16T14:38:47.861Z,101720.72
2022-10-16T14:41:57.211Z,101722.42
2022-10-16T14:44:51.878Z,101730.79
2022-10-16T14:48:02.967Z,101728.17
2022-10-16T14:51:00.951Z,101738.15
2022-10-16T14:53:50.306Z,101744.63
2022-10-16T14:56:48.674Z,101750.52
2022-10-16T14:59:40.251Z,101752.87
2022-10-16T15:02:31.449Z,101752.29
2022-10-16T15:05:22.885Z,101750.91
2022-10-16T15:08:13.035Z,101750.75
2022-10-16T15:11:01.778Z,101759.31
2022-10-16T15:13:50.240Z,101751.08
2022-10-16T15:16:39.312Z,101747.21
2022-10-16T15:19:27.728Z,101743.50
2022-10-16T15:22:16.348Z,101757.39
2022-10-16T15:25:20.764Z,101754.55
2022-10-16T15:28:09.180Z,101752.70
2022-10-16T15:30:58.462Z,101758.11
2022-10-16T15:33:53.596Z,101760.62
2022-10-16T15:36:42.178Z,101760.63
2022-10-16T15:39:30.316Z,101767.86
2022-10-16T15:42:18.519Z,101766.79
2022-10-16T15:45:08.142Z,101775.87
2022-10-16T15:47:56.073Z,101775.22
2022-10-16T15:53:32.516Z,101789.83
2022-10-16T15:56:23.168Z,101788.97
2022-10-16T15:59:13.104Z,101786.23
2022-10-16T16:02:08.056Z,101793.19
2022-10-16T16:05:01.001Z,101798.45
2022-10-16T16:07:55.039Z,101808.04
2022-10-16T16:10:45.648Z,101813.31
2022-10-16T16:13:42.288Z,101814.06
2022-10-16T16:16:30.229Z,101820.98
2022-10-16T16:19:21.410Z,101827.88
2022-10-16T16:22:10.944Z,101825.72
2022-10-16T16:25:01.346Z,101831.59
2022-10-16T16:27:49.487Z,101831.89
2022-10-16T16:30:38.246Z,101822.53
2022-10-16T16:33:26.277Z,101815.64
2022-10-16T16:36:16.193Z,101823.93
2022-10-16T16:39:04.906Z,101824.24
2022-10-16T16:41:54.208Z,101830.72
2022-10-16T16:44:42.672Z,101836.34
2022-10-16T16:47:30.915Z,101841.80
2022-10-16T16:50:19.388Z,101847.23
2022-10-16T16:53:07.509Z,101838.67
2022-10-16T16:55:55.625Z,101842.65
2022-10-16T16:58:45.766Z,101853.23
2022-10-16T17:01:33.811Z,101850.64
2022-10-16T17:04:21.897Z,101855.05
2022-10-16T17:07:10.063Z,101849.78
2022-10-16T17:09:58.487Z,101853.38
2022-10-16T17:12:46.623Z,101857.78
2022-10-16T17:15:34.637Z,101866.52
2022-10-16T17:18:24.624Z,101864.70
2022-10-16T17:21:13.077Z,101866.42
2022-10-16T17:24:02.512Z,101860.13
2022-10-16T17:26:50.905Z,101866.19
2022-10-16T17:29:39.724Z,101871.39
2022-10-16T17:32:28.260Z,101877.63
2022-10-16T17:35:16.850Z,101871.49
2022-10-16T17:38:05.464Z,101886.38
2022-10-16T17:40:53.872Z,101882.75
2022-10-16T17:43:42.831Z,101883.61
2022-10-16T17:46:34.511Z,101886.31
2022-10-16T17:49:26.151Z,101889.21
2022-10-16T17:52:14.419Z,101888.73
2022-10-16T17:55:02.411Z,101877.63
2022-10-16T17:57:52.687Z,101886.97
2022-10-16T18:00:40.525Z,101896.81
2022-10-16T18:03:28.486Z,101894.16
2022-10-16T18:06:21.625Z,101897.66
2022-10-16T18:09:14.423Z,101896.02
2022-10-16T18:12:02.770Z,101897.84
2022-10-16T18:14:55.260Z,101897.69
2022-10-16T18:17:43.588Z,101898.70
2022-10-16T18:20:32.235Z,101907.35
2022-10-16T18:23:20.184Z,101911.68
2022-10-16T18:26:10.392Z,101911.67
2022-10-16T18:29:00.190Z,101910.67
2022-10-16T18:31:49.103Z,101906.16
2022-10-16T18:34:37.793Z,101908.66
2022-10-16T18:37:26.611Z,101914.63
2022-10-16T18:40:18.124Z,101919.94
2022-10-16T18:43:05.867Z,101922.72
2022-10-16T18:45:58.523Z,101929.53
2022-10-16T18:48:47.931Z,101924.86
2022-10-16T18:51:39.927Z,101926.50
2022-10-16T18:54:28.264Z,101935.12
2022-10-16T18:57:16.447Z,101936.75
2022-10-16T19:00:06.480Z,101939.20
2022-10-16T19:02:54.273Z,101942.48
2022-10-16T19:05:46.173Z,101946.77
2022-10-16T19:08:34.495Z,101949.17
2022-10-16T19:11:24.438Z,101949.66
2022-10-16T19:14:14.395Z,101960.07
2022-10-16T19:17:02.967Z,101959.88
2022-10-16T19:19:50.953Z,101964.14
2022-10-16T19:22:53.217Z,101967.25
2022-10-16T19:25:41.354Z,101969.03
2022-10-16T19:28:29.690Z,101979.28
2022-10-16T19:31:20.679Z,101972.91
2022-10-16T19:34:10.792Z,101981.49
2022-10-16T19:36:58.898Z,101985.58
2022-10-16T19:39:49.309Z,101986.19
2022-10-16T19:42:43.135Z,101989.44
2022-10-16T19:45:31.514Z,101983.75
2022-10-16T19:48:22.354Z,101987.02
2022-10-16T19:51:16.555Z,101991.94
2022-10-16T19:54:07.114Z,101999.68
2022-10-16T19:56:57.558Z,101995.79
2022-10-16T19:59:46.916Z,101996.37
2022-10-16T20:02:36.230Z,101998.52
2022-10-16T20:05:24.883Z,102002.58
2022-10-16T20:08:13.167Z,102011.98
2022-10-16T20:11:01.575Z,102008.08
2022-10-16T20:13:50.484Z,102003.36
2022-10-16T20:16:40.069Z,102013.45
2022-10-16T20:19:28.058Z,102005.91
2022-10-16T20:22:16.045Z,102014.32
2022-10-16T20:25:08.480Z,102010.42
2022-10-16T20:27:58.865Z,102018.83
2022-10-16T20:30:49.581Z,102020.22
2022-10-16T20:33:38.271Z,102019.00
2022-10-16T20:36:30.173Z,102025.70
2022-10-16T20:39:22.007Z,102018.19
2022-10-16T20:42:10.202Z,102031.13
2022-10-16T20:44:58.338Z,102037.98
2022-10-16T20:47:46.375Z,102034.22
2022-10-16T20:50:35.211Z,102032.02
2022-10-16T20:53:23.829Z,102043.02
2022-10-16T20:56:12.541Z,102049.73
2022-10-16T20:59:00.652Z,102047.77
2022-10-16T21:01:48.902Z,102046.53
2022-10-16T21:04:37.158Z,102051.41
2022-10-16T21:07:26.979Z,102056.25
2022-10-16T21:10:16.004Z,102050.41
2022-10-16T21:13:04.173Z,102048.04
2022-10-16T21:15:52.379Z,102056.27
2022-10-16T21:18:44.535Z,102060.98
2022-10-16T21:21:37.420Z,102068.38
2022-10-16T21:24:25.729Z,102069.63
2022-10-16T21:27:13.623Z,102066.55
2022-10-16T21:30:01.649Z,102071.69
2022-10-16T21:32:49.332Z,102072.34
2022-10-16T21:35:38.078Z,102070.94
2022-10-16T21:38:27.271Z,102076.07
2022-10-16T21:41:20.598Z,102073.69
2022-10-16T21:44:09.424Z,102071.47
2022-10-16T21:46:57.702Z,102065.59
2022-10-16T21:49:45.447Z,102069.36
2022-10-16T21:52:33.861Z,102069.48
2022-10-16T21:55:22.867Z,102070.59
2022-10-16T21:58:10.878Z,102080.59
2022-10-16T22:00:58.971Z,102082.52
2022-10-16T22:03:48.876Z,102081.97
2022-10-16T22:06:37.113Z,102093.63
2022-10-16T22:09:25.164Z,102101.83
2022-10-16T22:12:19.099Z,102092.48
2022-10-16T22:15:10.879Z,102093.86
2022-10-16T22:18:00.811Z,102089.10
2022-10-16T22:20:49.434Z,102095.73
2022-10-16T22:23:37.661Z,102090.70
2022-10-16T22:26:26.762Z,102090.85
2022-10-16T22:29:16.574Z,102097.36
2022-10-16T22:32:07.673Z,102095.95
2022-10-16T22:34:55.663Z,102098.84
2022-10-16T22:37:43.344Z,102101.75
2022-10-16T22:40:33.429Z,102100.33
2022-10-16T22:43:21.355Z,102106.84
2022-10-16T22:46:11.807Z,102108.77
2022-10-16T22:48:59.874Z,102115.13
2022-10-16T22:51:47.816Z,102115.39
2022-10-16T22:54:35.921Z,102122.75
2022-10-16T22:57:23.931Z,102111.58
2022-10-16T23:00:15.799Z,102116.30
2022-10-16T23:03:03.993Z,102119.19
2022-10-16T23:05:52.666Z,102123.05
2022-10-16T23:08:40.912Z,102125.09
2022-10-16T23:11:30.263Z,102125.34
2022-10-16T23:14:22.366Z,102117.92
2022-10-16T23:17:10.608Z,102122.48
2022-10-16T23:19:58.603Z,102128.16
2022-10-16T23:22:46.715Z,102127.69
2022-10-16T23:25:35.454Z,102135.97
2022-10-16T23:28:24.267Z,102140.50
2022-10-16T23:31:14.187Z,102139.92
2022-10-16T23:34:02.716Z,102138.35
2022-10-16T23:36:51.210Z,102145.56
2022-10-16T23:39:39.610Z,102149.41
2022-10-16T23:42:28.074Z,102143.55
2022-10-16T23:45:17.144Z,102141.26
2022-10-16T23:48:05.699Z,102140.68
2022-10-16T23:50:54.374Z,102134.69
2022-10-16T23:53:42.215Z,102136.61
2022-10-16T23:56:30.646Z,102141.17
2022-10-16T23:59:18.768Z,102143.91
